tititudorancea.com
Station Historical Data
Daily Summary for November 10, 2018 Units:  English    Metric   Both
« Previous Day
Next Day »
Daily Weekly Monthly Yearly Custom
  High: Low: Average:
Temperature: TemperatureF °F 42.5 °F 54.4 °F
Dew Point: DewpointF °F 40.2 °F 44.8 °F
Humidity: Humidity % 46 % 72 %
Wind Speed: WindSpeedMPH mph 0.0 mph 4.6 mph
Wind Gust: WindSpeedGustMPH mph - -
Wind:- - SW
Pressure: PressureIn in 30.02 in -
Precipitation: 0.00 in    
Historical Graphs
 
 
Ararat weather Find more about Weather in Ararat, AU


 



 


Tabular Data for November 10, 2018
Time Temperature Dew Point Pressure Wind Wind Speed Wind Gust Humidity Rainfall Rate (Hourly)
TemperatureF °F DewpointF °F PressureIn in Calm     Humidity % HourlyPrecipIn in
00:04 47.1 °F 43.7 °F 30.06 in Calm     88 % 0.00 in
00:09 46.9 °F 43.5 °F 30.06 in Calm     88 % 0.00 in
00:14 46.7 °F 43.3 °F 30.06 in Calm     88 % 0.00 in
00:19 46.6 °F 43.2 °F 30.06 in Calm     88 % 0.00 in
00:24 46.4 °F 43.3 °F 30.06 in Calm     89 % 0.00 in
00:29 46.4 °F 43.3 °F 30.06 in Calm     89 % 0.00 in
00:34 46.3 °F 43.2 °F 30.06 in Calm     89 % 0.00 in
00:39 46.3 °F 43.5 °F 30.06 in Calm     90 % 0.00 in
00:44 46.2 °F 43.4 °F 30.05 in Calm     90 % 0.00 in
00:49 46.2 °F 43.4 °F 30.06 in Calm     90 % 0.00 in
00:54 46.2 °F 43.4 °F 30.06 in Calm     90 % 0.00 in
00:59 45.8 °F 42.7 °F 30.06 in Calm     89 % 0.00 in
01:04 45.7 °F 42.9 °F 30.06 in Calm     90 % 0.00 in
01:09 45.7 °F 42.9 °F 30.06 in Calm     90 % 0.00 in
01:14 45.6 °F 42.8 °F 30.05 in Calm     90 % 0.00 in
01:19 45.3 °F 42.5 °F 30.05 in Calm     90 % 0.00 in
01:24 45.1 °F 42.3 °F 30.05 in Calm     90 % 0.00 in
01:29 44.8 °F 42.0 °F 30.05 in Calm     90 % 0.00 in
01:34 44.6 °F 41.8 °F 30.05 in Calm     90 % 0.00 in
01:39 44.4 °F 41.7 °F 30.05 in Calm     90 % 0.00 in
01:44 44.2 °F 41.5 °F 30.04 in Calm     90 % 0.00 in
01:49 44.1 °F 41.6 °F 30.04 in Calm     91 % 0.00 in
01:54 44.1 °F 41.6 °F 30.04 in Calm     91 % 0.00 in
01:59 44.0 °F 41.5 °F 30.04 in Calm     91 % 0.00 in
02:04 44.0 °F 41.5 °F 30.04 in Calm     91 % 0.00 in
02:09 44.1 °F 41.6 °F 30.04 in Calm     91 % 0.00 in
02:14 44.1 °F 41.6 °F 30.04 in Calm     91 % 0.00 in
02:19 43.8 °F 41.3 °F 30.04 in Calm     91 % 0.00 in
02:24 43.5 °F 41.0 °F 30.04 in Calm     91 % 0.00 in
02:29 43.2 °F 40.8 °F 30.04 in Calm     91 % 0.00 in
02:34 42.9 °F 40.5 °F 30.04 in Calm     91 % 0.00 in
02:39 42.8 °F 40.6 °F 30.04 in Calm     92 % 0.00 in
02:44 42.8 °F 40.6 °F 30.04 in Calm     92 % 0.00 in
02:49 42.7 °F 40.3 °F 30.04 in Calm     91 % 0.00 in
02:54 42.6 °F 40.2 °F 30.04 in Calm     91 % 0.00 in
02:59 42.5 °F 40.3 °F 30.04 in Calm     92 % 0.00 in
03:04 42.5 °F 40.3 °F 30.04 in Calm     92 % 0.00 in
03:09 42.6 °F 40.4 °F 30.03 in Calm     92 % 0.00 in
03:14 42.7 °F 40.5 °F 30.03 in Calm     92 % 0.00 in
03:19 42.9 °F 41.0 °F 30.03 in Calm     93 % 0.00 in
03:24 43.1 °F 41.2 °F 30.03 in Calm     93 % 0.00 in
03:29 43.3 °F 41.4 °F 30.04 in Calm     93 % 0.00 in
03:34 43.4 °F 41.5 °F 30.03 in Calm     93 % 0.00 in
03:39 43.5 °F 41.6 °F 30.03 in Calm     93 % 0.00 in
03:44 43.5 °F 41.3 °F 30.03 in Calm     92 % 0.00 in
03:49 43.3 °F 41.1 °F 30.03 in Calm     92 % 0.00 in
03:54 43.1 °F 40.9 °F 30.03 in Calm     92 % 0.00 in
03:59 43.1 °F 40.9 °F 30.03 in Calm     92 % 0.00 in
04:04 43.0 °F 40.8 °F 30.03 in Calm     92 % 0.00 in
04:09 42.9 °F 41.0 °F 30.03 in Calm     93 % 0.00 in
04:14 42.9 °F 41.0 °F 30.03 in Calm     93 % 0.00 in
04:19 43.0 °F 41.1 °F 30.03 in Calm     93 % 0.00 in
04:24 42.9 °F 41.0 °F 30.03 in Calm     93 % 0.00 in
04:29 42.8 °F 40.9 °F 30.03 in Calm     93 % 0.00 in
04:34 42.9 °F 41.0 °F 30.02 in Calm     93 % 0.00 in
04:39 43.0 °F 41.1 °F 30.02 in Calm     93 % 0.00 in
04:44 43.2 °F 41.3 °F 30.02 in SSW 1.2 mph   93 % 0.00 in
04:49 43.2 °F 41.3 °F 30.02 in Calm     93 % 0.00 in
04:54 43.1 °F 41.2 °F 30.02 in Calm     93 % 0.00 in
04:59 43.2 °F 41.3 °F 30.02 in Calm     93 % 0.00 in
05:04 43.1 °F 41.2 °F 30.02 in Calm     93 % 0.00 in
05:09 43.1 °F 41.2 °F 30.02 in Calm     93 % 0.00 in
05:14 43.1 °F 41.2 °F 30.03 in Calm     93 % 0.00 in
05:19 43.1 °F 41.2 °F 30.02 in Calm     93 % 0.00 in
05:24 42.9 °F 41.0 °F 30.02 in Calm     93 % 0.00 in
05:29 42.9 °F 41.0 °F 30.02 in Calm     93 % 0.00 in
05:34 42.8 °F 40.9 °F 30.03 in Calm     93 % 0.00 in
05:39 42.7 °F 40.8 °F 30.03 in Calm     93 % 0.00 in
05:44 42.6 °F 40.7 °F 30.03 in Calm     93 % 0.00 in
05:49 42.6 °F 40.7 °F 30.03 in SSW 2.3 mph 1.5 mph 93 % 0.00 in
05:54 42.6 °F 40.7 °F 30.03 in SSW 2.3 mph 0.1 mph 93 % 0.00 in
05:59 42.6 °F 40.7 °F 30.03 in Calm     93 % 0.00 in
06:04 42.6 °F 40.7 °F 30.04 in Calm     93 % 0.00 in
06:09 42.6 °F 41.0 °F 30.04 in Calm     94 % 0.00 in
06:14 42.8 °F 41.2 °F 30.04 in Calm     94 % 0.00 in
06:19 42.7 °F 41.1 °F 30.04 in SSW 1.2 mph 1.2 mph 94 % 0.00 in
06:24 42.8 °F 41.2 °F 30.04 in Calm     94 % 0.00 in
06:29 42.9 °F 41.0 °F 30.05 in Calm     93 % 0.00 in
06:34 42.9 °F 41.3 °F 30.05 in Calm     94 % 0.00 in
06:39 42.8 °F 41.2 °F 30.05 in SSW 2.3 mph   94 % 0.00 in
06:44 43.1 °F 41.5 °F 30.05 in Calm     94 % 0.00 in
06:49 43.5 °F 41.9 °F 30.05 in Calm     94 % 0.00 in
06:54 43.9 °F 42.3 °F 30.05 in Calm     94 % 0.00 in
06:59 44.1 °F 42.5 °F 30.06 in Calm     94 % 0.00 in
07:04 44.5 °F 43.2 °F 30.06 in Calm     95 % 0.00 in
07:09 45.0 °F 43.7 °F 30.06 in Calm     95 % 0.00 in
07:14 45.4 °F 44.1 °F 30.06 in Calm     95 % 0.00 in
07:19 46.1 °F 44.7 °F 30.07 in Calm     95 % 0.00 in
07:24 46.6 °F 45.2 °F 30.07 in Calm     95 % 0.00 in
07:29 46.7 °F 45.1 °F 30.06 in Calm     94 % 0.00 in
07:34 47.2 °F 45.8 °F 30.06 in Calm     95 % 0.00 in
07:39 47.7 °F 46.3 °F 30.06 in Calm     95 % 0.00 in
07:44 48.3 °F 46.9 °F 30.07 in SSW 2.0 mph 1.5 mph 95 % 0.00 in
07:49 48.9 °F 47.5 °F 30.06 in SSW 3.5 mph 1.0 mph 95 % 0.00 in
07:54 49.5 °F 47.8 °F 30.06 in SSW 3.5 mph 2.2 mph 94 % 0.00 in
07:59 50.0 °F 48.1 °F 30.07 in SSW 3.5 mph 2.1 mph 93 % 0.00 in
08:04 50.6 °F 48.7 °F 30.07 in SSW 3.5 mph 1.6 mph 93 % 0.00 in
08:09 51.3 °F 49.1 °F 30.07 in SSW 2.3 mph 1.6 mph 92 % 0.00 in
08:14 51.9 °F 49.4 °F 30.07 in SW 3.5 mph 2.3 mph 91 % 0.00 in
08:19 52.7 °F 49.5 °F 30.07 in SSW 3.5 mph 2.6 mph 89 % 0.00 in
08:24 53.4 °F 49.3 °F 30.07 in SSW 3.5 mph 1.8 mph 86 % 0.00 in
08:29 54.0 °F 49.0 °F 30.07 in SSW 3.5 mph 1.2 mph 83 % 0.00 in
08:34 54.7 °F 49.0 °F 30.07 in SSW 4.0 mph 3.7 mph 81 % 0.00 in
08:39 55.3 °F 48.6 °F 30.07 in SSW 3.5 mph 1.2 mph 78 % 0.00 in
08:44 55.7 °F 48.2 °F 30.08 in SSW 3.0 mph 1.2 mph 76 % 0.00 in
08:49 56.1 °F 48.3 °F 30.08 in SSW 3.5 mph 2.8 mph 75 % 0.00 in
08:54 56.5 °F 47.9 °F 30.08 in SSW 3.5 mph 0.2 mph 73 % 0.00 in
08:59 57.1 °F 47.8 °F 30.08 in SSW 6.0 mph 4.3 mph 71 % 0.00 in
09:04 57.1 °F 47.4 °F 30.08 in SSW 5.0 mph 2.1 mph 70 % 0.00 in
09:09 56.8 °F 47.1 °F 30.08 in SSW 8.1 mph 4.4 mph 70 % 0.00 in
09:14 56.4 °F 47.1 °F 30.08 in North 5.8 mph 4.0 mph 71 % 0.00 in
09:19 56.2 °F 47.3 °F 30.07 in SW 3.5 mph 0.8 mph 72 % 0.00 in
09:24 56.4 °F 47.5 °F 30.07 in SW 3.0 mph 2.3 mph 72 % 0.00 in
09:29 57.2 °F 47.5 °F 30.07 in North 3.5 mph 3.1 mph 70 % 0.00 in
09:34 58.2 °F 48.1 °F 30.07 in SW 6.0 mph 3.8 mph 69 % 0.00 in
09:39 57.7 °F 47.2 °F 30.07 in WSW 9.2 mph 7.0 mph 68 % 0.00 in
09:44 57.2 °F 46.7 °F 30.07 in West 3.5 mph 2.6 mph 68 % 0.00 in
09:49 57.7 °F 47.6 °F 30.07 in WSW 6.9 mph 5.8 mph 69 % 0.00 in
09:54 58.5 °F 47.6 °F 30.07 in WSW 8.0 mph 4.5 mph 67 % 0.00 in
09:59 59.1 °F 47.3 °F 30.07 in WSW 8.1 mph 4.7 mph 65 % 0.00 in
10:04 58.8 °F 47.1 °F 30.07 in North 10.4 mph 7.8 mph 65 % 0.00 in
10:09 58.8 °F 47.5 °F 30.07 in North 5.8 mph 5.0 mph 66 % 0.00 in
10:14 58.9 °F 47.6 °F 30.07 in West 6.0 mph 3.9 mph 66 % 0.00 in
10:19 59.0 °F 46.8 °F 30.07 in North 4.6 mph 3.9 mph 64 % 0.00 in
10:24 58.9 °F 47.2 °F 30.08 in West 9.2 mph 4.4 mph 65 % 0.00 in
10:29 59.4 °F 47.6 °F 30.07 in West 6.9 mph 5.9 mph 65 % 0.00 in
10:34 59.4 °F 47.2 °F 30.07 in WNW 9.2 mph 7.5 mph 64 % 0.00 in
10:39 58.9 °F 46.7 °F 30.08 in WNW 6.9 mph 5.2 mph 64 % 0.00 in
10:44 58.6 °F 46.9 °F 30.08 in WNW 3.5 mph 2.7 mph 65 % 0.00 in
10:49 59.0 °F 48.1 °F 30.08 in WNW 6.9 mph 4.8 mph 67 % 0.00 in
10:54 59.3 °F 47.5 °F 30.08 in WNW 4.6 mph 2.4 mph 65 % 0.00 in
10:59 59.8 °F 47.6 °F 30.08 in WNW 5.8 mph 3.7 mph 64 % 0.00 in
11:04 60.1 °F 47.9 °F 30.07 in WNW 4.0 mph 3.6 mph 64 % 0.00 in
11:09 60.2 °F 47.6 °F 30.07 in WNW 3.5 mph 0.9 mph 63 % 0.00 in
11:14 60.3 °F 47.2 °F 30.08 in North 8.1 mph 6.2 mph 62 % 0.00 in
11:19 60.5 °F 47.4 °F 30.07 in WNW 3.5 mph 2.5 mph 62 % 0.00 in
11:24 60.5 °F 47.4 °F 30.08 in WNW 8.1 mph 1.6 mph 62 % 0.00 in
11:29 60.4 °F 47.3 °F 30.08 in WNW 8.0 mph 6.2 mph 62 % 0.00 in
11:34 60.1 °F 47.5 °F 30.08 in North 8.1 mph 5.6 mph 63 % 0.00 in
11:39 59.9 °F 47.3 °F 30.08 in West 11.5 mph 7.3 mph 63 % 0.00 in
11:44 60.4 °F 47.7 °F 30.08 in West 3.5 mph 2.1 mph 63 % 0.00 in
11:49 62.1 °F 46.2 °F 30.07 in West 9.2 mph 5.8 mph 56 % 0.00 in
11:54 62.8 °F 47.8 °F 30.08 in West 6.9 mph 4.9 mph 58 % 0.00 in
11:59 62.7 °F 47.2 °F 30.08 in West 9.2 mph 6.7 mph 57 % 0.00 in
12:04 62.0 °F 47.0 °F 30.07 in North 8.1 mph 4.6 mph 58 % 0.00 in
12:09 62.2 °F 47.2 °F 30.07 in West 3.5 mph 2.0 mph 58 % 0.00 in
12:14 63.2 °F 47.7 °F 30.07 in West 6.9 mph 4.9 mph 57 % 0.00 in
12:19 62.2 °F 46.8 °F 30.07 in WSW 11.5 mph 5.7 mph 57 % 0.00 in
12:24 61.4 °F 46.5 °F 30.07 in WSW 6.9 mph 4.7 mph 58 % 0.00 in
12:29 61.3 °F 46.4 °F 30.07 in West 6.9 mph 4.2 mph 58 % 0.00 in
12:34 61.3 °F 46.4 °F 30.07 in WSW 6.9 mph 3.8 mph 58 % 0.00 in
12:39 61.9 °F 46.0 °F 30.07 in West 3.0 mph 1.4 mph 56 % 0.00 in
12:44 62.4 °F 46.0 °F 30.07 in WSW 8.1 mph 3.8 mph 55 % 0.00 in
12:49 62.5 °F 47.1 °F 30.07 in WSW 5.0 mph 3.8 mph 57 % 0.00 in
12:54 63.2 °F 46.3 °F 30.07 in West 2.3 mph 0.5 mph 54 % 0.00 in
12:59 63.7 °F 46.7 °F 30.07 in West 11.0 mph 8.3 mph 54 % 0.00 in
13:04 63.2 °F 46.3 °F 30.07 in West 8.1 mph 5.8 mph 54 % 0.00 in
13:09 63.3 °F 46.9 °F 30.07 in North 9.2 mph 5.1 mph 55 % 0.00 in
13:14 63.5 °F 46.6 °F 30.07 in WSW 8.1 mph 4.5 mph 54 % 0.00 in
13:19 62.9 °F 46.0 °F 30.07 in WSW 6.9 mph 5.2 mph 54 % 0.00 in
13:24 63.2 °F 46.8 °F 30.06 in North 7.0 mph 5.3 mph 55 % 0.00 in
13:29 63.6 °F 47.1 °F 30.06 in North 3.0 mph 2.7 mph 55 % 0.00 in
13:34 64.2 °F 48.2 °F 30.06 in SW 6.9 mph 6.8 mph 56 % 0.00 in
13:39 63.9 °F 46.4 °F 30.06 in SW 10.4 mph 5.6 mph 53 % 0.00 in
13:44 63.4 °F 46.0 °F 30.06 in North 11.5 mph 7.3 mph 53 % 0.00 in
13:49 63.1 °F 45.2 °F 30.06 in SW 9.2 mph   52 % 0.00 in
13:54 64.0 °F 46.5 °F 30.06 in SW 10.4 mph 6.1 mph 53 % 0.00 in
13:59 64.0 °F 45.5 °F 30.06 in SW 11.5 mph 4.5 mph 51 % 0.00 in
14:04 63.4 °F 46.0 °F 30.06 in SSW 11.5 mph 6.3 mph 53 % 0.00 in
14:09 63.4 °F 46.5 °F 30.06 in SW 8.1 mph 6.5 mph 54 % 0.00 in
14:14 63.6 °F 46.1 °F 30.06 in SW 12.7 mph 8.3 mph 53 % 0.00 in
14:19 63.3 °F 45.9 °F 30.05 in SSW 11.5 mph 9.8 mph 53 % 0.00 in
14:24 63.6 °F 46.1 °F 30.05 in SSW 8.0 mph 6.6 mph 53 % 0.00 in
14:29 64.0 °F 46.5 °F 30.05 in SW 10.0 mph 6.1 mph 53 % 0.00 in
14:34 63.9 °F 45.9 °F 30.05 in North 10.0 mph 4.9 mph 52 % 0.00 in
14:39 64.4 °F 46.4 °F 30.05 in North 5.0 mph 4.7 mph 52 % 0.00 in
14:44 65.6 °F 46.5 °F 30.05 in WSW 11.5 mph 6.8 mph 50 % 0.00 in
14:49 65.5 °F 46.4 °F 30.05 in West 11.5 mph 7.1 mph 50 % 0.00 in
14:54 65.8 °F 46.1 °F 30.05 in West 10.4 mph 7.9 mph 49 % 0.00 in
14:59 65.7 °F 45.5 °F 30.05 in WSW 11.5 mph 6.7 mph 48 % 0.00 in
15:04 65.4 °F 46.3 °F 30.05 in SSW 8.0 mph 6.2 mph 50 % 0.00 in
15:09 65.1 °F 46.0 °F 30.05 in SW 8.1 mph 5.8 mph 50 % 0.00 in
15:14 65.2 °F 45.5 °F 30.04 in SW 9.2 mph 6.9 mph 49 % 0.00 in
15:19 65.0 °F 45.4 °F 30.04 in SW 11.5 mph 7.2 mph 49 % 0.00 in
15:24 65.2 °F 46.6 °F 30.04 in SSW 9.2 mph 6.0 mph 51 % 0.00 in
15:29 65.4 °F 45.2 °F 30.04 in SSW 6.0 mph 5.3 mph 48 % 0.00 in
15:34 65.5 °F 45.3 °F 30.04 in SSW 11.5 mph 5.8 mph 48 % 0.00 in
15:39 65.5 °F 44.7 °F 30.04 in SW 8.0 mph 5.0 mph 47 % 0.00 in
15:44 66.0 °F 45.2 °F 30.04 in WSW 10.0 mph 8.1 mph 47 % 0.00 in
15:49 65.6 °F 44.8 °F 30.04 in WSW 10.4 mph 6.8 mph 47 % 0.00 in
15:54 64.5 °F 45.4 °F 30.04 in SW 6.9 mph 7.0 mph 50 % 0.00 in
15:59 64.1 °F 45.6 °F 30.04 in SW 8.1 mph 6.3 mph 51 % 0.00 in
16:04 64.1 °F 45.1 °F 30.04 in SW 5.8 mph 0.9 mph 50 % 0.00 in
16:09 64.1 °F 45.1 °F 30.04 in SW 4.6 mph 4.3 mph 50 % 0.00 in
16:14 64.2 °F 45.2 °F 30.03 in SSW 5.0 mph 4.6 mph 50 % 0.00 in
16:19 64.8 °F 46.2 °F 30.03 in SSW 5.8 mph 4.8 mph 51 % 0.00 in
16:24 65.6 °F 45.9 °F 30.03 in SSW 5.8 mph 5.6 mph 49 % 0.00 in
16:29 65.7 °F 46.0 °F 30.03 in South 9.0 mph 4.8 mph 49 % 0.00 in
16:34 65.7 °F 45.5 °F 30.03 in South 5.8 mph 1.7 mph 48 % 0.00 in
16:39 66.0 °F 45.7 °F 30.03 in SSE 6.9 mph 4.1 mph 48 % 0.00 in
16:44 65.9 °F 45.1 °F 30.03 in SW 10.4 mph 7.9 mph 47 % 0.00 in
16:49 65.8 °F 45.6 °F 30.04 in SW 6.9 mph 3.6 mph 48 % 0.00 in
16:54 65.8 °F 45.0 °F 30.04 in SW 9.2 mph 8.0 mph 47 % 0.00 in
16:59 66.0 °F 44.6 °F 30.04 in SW 4.6 mph 2.8 mph 46 % 0.00 in
17:04 66.2 °F 45.9 °F 30.04 in SSW 10.4 mph 5.2 mph 48 % 0.00 in
17:09 66.1 °F 45.8 °F 30.04 in SSW 11.5 mph 6.7 mph 48 % 0.00 in
17:14 66.2 °F 45.9 °F 30.04 in SW 9.0 mph 6.3 mph 48 % 0.00 in
17:19 65.3 °F 45.6 °F 30.04 in SW 8.0 mph 3.9 mph 49 % 0.00 in
17:24 64.8 °F 45.7 °F 30.04 in SSW 9.2 mph 6.3 mph 50 % 0.00 in
17:29 64.9 °F 45.8 °F 30.04 in SSW 8.1 mph 4.4 mph 50 % 0.00 in
17:34 65.5 °F 46.4 °F 30.04 in SSW 6.0 mph 3.6 mph 50 % 0.00 in
17:39 65.8 °F 45.6 °F 30.04 in SSW 8.1 mph 5.1 mph 48 % 0.00 in
17:44 65.8 °F 45.6 °F 30.04 in SSW 9.2 mph 7.0 mph 48 % 0.00 in
17:49 65.7 °F 45.5 °F 30.04 in SSW 8.1 mph 2.8 mph 48 % 0.00 in
17:54 65.8 °F 45.6 °F 30.04 in SSW 12.7 mph 7.7 mph 48 % 0.00 in
17:59 65.2 °F 45.5 °F 30.04 in South 7.0 mph 7.1 mph 49 % 0.00 in
18:04 65.1 °F 46.5 °F 30.04 in SSW 4.6 mph 4.1 mph 51 % 0.00 in
18:09 65.3 °F 45.6 °F 30.04 in SSW 8.1 mph 4.9 mph 49 % 0.00 in
18:14 65.1 °F 45.5 °F 30.04 in SSW 12.7 mph 10.4 mph 49 % 0.00 in
18:19 64.9 °F 45.8 °F 30.04 in SSW 8.1 mph 4.4 mph 50 % 0.00 in
18:24 65.2 °F 45.5 °F 30.04 in South 11.5 mph 7.3 mph 49 % 0.00 in
18:29 65.2 °F 45.5 °F 30.04 in South 9.2 mph 5.8 mph 49 % 0.00 in
18:34 65.1 °F 45.5 °F 30.04 in South 9.2 mph 5.3 mph 49 % 0.00 in
18:39 64.9 °F 45.8 °F 30.04 in South 12.7 mph 8.5 mph 50 % 0.00 in
18:44 64.5 °F 46.0 °F 30.04 in South 11.5 mph 5.6 mph 51 % 0.00 in
18:49 64.4 °F 45.9 °F 30.04 in South 10.4 mph 6.9 mph 51 % 0.00 in
18:54 64.1 °F 45.6 °F 30.04 in SSW 11.5 mph 9.2 mph 51 % 0.00 in
18:59 64.0 °F 46.0 °F 30.04 in SSW 10.4 mph 5.6 mph 52 % 0.00 in
19:04 63.8 °F 46.3 °F 30.04 in South 9.2 mph 6.8 mph 53 % 0.00 in
19:09 63.5 °F 46.1 °F 30.04 in South 12.7 mph 6.4 mph 53 % 0.00 in
19:14 63.1 °F 46.7 °F 30.05 in South 9.2 mph 4.2 mph 55 % 0.00 in
19:19 62.8 °F 46.4 °F 30.05 in South 11.5 mph 7.2 mph 55 % 0.00 in
19:24 62.6 °F 46.7 °F 30.05 in South 11.5 mph 5.5 mph 56 % 0.00 in
19:25 62.6 °F 46.7 °F 30.05 in South 9.2 mph 6.4 mph 56 % 0.00 in
19:49 60.9 °F 46.5 °F 30.06 in SSW 9.2 mph 5.6 mph 59 % 0.00 in
19:54 60.6 °F 46.2 °F 30.06 in South 5.8 mph 5.1 mph 59 % 0.00 in
19:59 60.1 °F 46.6 °F 30.07 in South 5.8 mph 4.2 mph 61 % 0.00 in
20:04 59.7 °F 46.2 °F 30.07 in South 5.8 mph 2.5 mph 61 % 0.00 in
20:09 59.4 °F 46.4 °F 30.07 in South 3.5 mph 2.8 mph 62 % 0.00 in
20:14 59.0 °F 46.4 °F 30.07 in South 6.9 mph 2.8 mph 63 % 0.00 in
20:19 58.7 °F 46.5 °F 30.08 in South 4.6 mph 4.4 mph 64 % 0.00 in
20:24 58.5 °F 46.4 °F 30.08 in South 8.1 mph 5.7 mph 64 % 0.00 in
20:29 58.3 °F 46.6 °F 30.08 in South 4.6 mph 4.2 mph 65 % 0.00 in
20:34 58.0 °F 46.7 °F 30.08 in South 5.0 mph 2.8 mph 66 % 0.00 in
20:39 57.7 °F 46.4 °F 30.08 in South 4.0 mph 3.5 mph 66 % 0.00 in
20:44 57.4 °F 46.5 °F 30.08 in South 5.0 mph 1.8 mph 67 % 0.00 in
20:49 57.1 °F 46.6 °F 30.08 in South 3.5 mph 1.3 mph 68 % 0.00 in
20:54 56.6 °F 46.2 °F 30.08 in South 3.5 mph 3.4 mph 68 % 0.00 in
20:59 56.2 °F 46.2 °F 30.09 in South 4.0 mph 3.0 mph 69 % 0.00 in
21:04 55.9 °F 46.3 °F 30.09 in South 4.6 mph 3.0 mph 70 % 0.00 in
21:09 55.6 °F 46.3 °F 30.09 in South 4.6 mph 2.4 mph 71 % 0.00 in
21:14 55.3 °F 46.4 °F 30.09 in South 3.5 mph 3.2 mph 72 % 0.00 in
21:19 55.1 °F 46.2 °F 30.09 in South 5.0 mph 3.5 mph 72 % 0.00 in
21:24 54.9 °F 46.4 °F 30.09 in South 4.6 mph 3.8 mph 73 % 0.00 in
21:29 54.7 °F 46.2 °F 30.09 in South 3.5 mph 2.7 mph 73 % 0.00 in
21:34 54.5 °F 46.4 °F 30.09 in South 3.5 mph 2.9 mph 74 % 0.00 in
21:39 54.2 °F 46.1 °F 30.10 in South 6.9 mph 4.1 mph 74 % 0.00 in
21:44 53.9 °F 46.2 °F 30.10 in SSW 5.8 mph 3.7 mph 75 % 0.00 in
21:49 53.6 °F 46.2 °F 30.10 in South 4.6 mph 3.7 mph 76 % 0.00 in
21:54 53.4 °F 46.0 °F 30.10 in South 4.6 mph 1.5 mph 76 % 0.00 in
21:59 53.2 °F 45.8 °F 30.11 in South 3.5 mph 0.5 mph 76 % 0.00 in
22:04 53.0 °F 46.0 °F 30.11 in South 3.5 mph 2.9 mph 77 % 0.00 in
22:09 52.7 °F 45.7 °F 30.11 in South 3.5 mph 1.8 mph 77 % 0.00 in
22:14 52.5 °F 45.8 °F 30.11 in South 4.6 mph 2.1 mph 78 % 0.00 in
22:19 52.2 °F 45.9 °F 30.11 in South 4.6 mph 2.0 mph 79 % 0.00 in
22:24 52.1 °F 45.8 °F 30.11 in South 6.9 mph 2.5 mph 79 % 0.00 in
22:29 51.9 °F 45.6 °F 30.11 in South 4.6 mph 2.5 mph 79 % 0.00 in
22:34 51.8 °F 45.8 °F 30.11 in South 8.1 mph 4.2 mph 80 % 0.00 in
22:39 51.7 °F 45.7 °F 30.11 in South 3.5 mph 2.6 mph 80 % 0.00 in
22:44 51.6 °F 45.6 °F 30.11 in South 5.0 mph 3.4 mph 80 % 0.00 in
22:49 51.5 °F 45.5 °F 30.11 in South 4.6 mph 3.5 mph 80 % 0.00 in
22:54 51.4 °F 45.4 °F 30.11 in South 4.0 mph 3.4 mph 80 % 0.00 in
22:59 51.3 °F 45.3 °F 30.11 in South 5.0 mph 3.8 mph 80 % 0.00 in
23:04 51.1 °F 45.5 °F 30.11 in South 4.6 mph 2.5 mph 81 % 0.00 in
23:09 51.0 °F 45.4 °F 30.11 in South 6.0 mph 4.5 mph 81 % 0.00 in
23:14 50.9 °F 45.3 °F 30.11 in South 5.0 mph 2.4 mph 81 % 0.00 in
23:19 50.7 °F 45.1 °F 30.11 in South 4.6 mph 2.1 mph 81 % 0.00 in
23:24 50.6 °F 45.0 °F 30.11 in South 3.5 mph 1.1 mph 81 % 0.00 in
23:29 50.4 °F 44.8 °F 30.11 in South 3.5 mph 1.9 mph 81 % 0.00 in
23:34 50.2 °F 44.9 °F 30.11 in South 3.5 mph 1.9 mph 82 % 0.00 in
23:39 50.0 °F 44.7 °F 30.11 in South 2.3 mph 1.5 mph 82 % 0.00 in
23:44 49.8 °F 44.5 °F 30.10 in South 1.2 mph 1.4 mph 82 % 0.00 in
23:49 49.6 °F 44.3 °F 30.11 in South 4.6 mph 1.6 mph 82 % 0.00 in
23:54 49.5 °F 44.6 °F 30.11 in South 5.8 mph 3.4 mph 83 % 0.00 in
23:59 49.3 °F 44.4 °F 30.11 in South 6.0 mph 4.1 mph 83 % 0.00 in
Ararat Weather
Compliments of Weather Underground - 2.25 mb
Click here to send mail.


ABOUT

Live weather data from Ararat, Victoria, Australia, 3377
Data uploaded from Cumulus every 5 minutes to Weather Underground.
This site then downloads the raw data for formatting and display.
Metric and imperial data can be displayed. Graphs and historical data available.
Includes Sun and Moon times and rain image live from BOM.

Check out Ararat Weather on Facebook, Twitter and Google +

Help support ongoing costs by checking out the ads





Follow @AraratWeather